createdAt,value
2023-11-17T00:03:53.746Z,5.68
2023-11-17T00:08:56.942Z,5.55
2023-11-17T00:13:59.974Z,5.65
2023-11-17T00:19:04.124Z,8.23
2023-11-17T00:24:07.643Z,5.57
2023-11-17T00:29:11.633Z,6.20
2023-11-17T00:34:14.550Z,6.30
2023-11-17T00:39:18.714Z,7.45
2023-11-17T00:44:21.549Z,7.28
2023-11-17T00:49:25.711Z,5.18
2023-11-17T00:54:29.130Z,5.40
2023-11-17T00:59:33.788Z,6.70
2023-11-17T01:04:36.536Z,8.73
2023-11-17T01:20:17.397Z,8.75
2023-11-17T01:25:20.088Z,5.63
2023-11-17T01:30:24.994Z,5.50
2023-11-17T01:35:29.235Z,5.55
2023-11-17T01:40:32.527Z,5.78
2023-11-17T01:45:35.419Z,6.63
2023-11-17T01:50:38.680Z,8.75
2023-11-17T01:55:41.608Z,8.30
2023-11-17T02:00:44.278Z,8.48
2023-11-17T02:05:50.897Z,7.95
2023-11-17T02:11:26.310Z,12.20
2023-11-17T02:16:34.861Z,6.47
2023-11-17T02:21:40.624Z,5.40
2023-11-17T02:27:08.596Z,5.28
2023-11-17T02:32:17.292Z,4.93
2023-11-17T02:37:26.309Z,5.00
2023-11-17T02:42:30.634Z,8.95
2023-11-17T02:47:37.164Z,6.18
2023-11-17T02:52:59.072Z,7.95
2023-11-17T02:58:02.432Z,6.05
2023-11-17T03:03:05.704Z,5.75
2023-11-17T03:08:09.219Z,8.02
2023-11-17T03:13:17.689Z,6.55
2023-11-17T03:18:21.228Z,5.78
2023-11-17T03:23:24.431Z,6.80
2023-11-17T03:28:27.192Z,7.22
2023-11-17T03:33:33.903Z,6.35
2023-11-17T03:38:37.008Z,8.90
2023-11-17T03:43:39.890Z,12.68
2023-11-17T03:48:42.874Z,7.97
2023-11-17T03:53:45.600Z,12.07
2023-11-17T03:58:48.730Z,6.00
2023-11-17T04:03:51.602Z,10.95
2023-11-17T04:08:55.445Z,5.68
2023-11-17T04:13:58.648Z,8.50
2023-11-17T04:19:01.825Z,6.07
2023-11-17T04:24:04.769Z,6.55
2023-11-17T04:29:08.619Z,6.43
2023-11-17T04:34:14.503Z,10.63
2023-11-17T04:39:25.864Z,5.53
2023-11-17T04:44:28.788Z,10.30
2023-11-17T04:49:31.759Z,8.75
2023-11-17T04:54:34.820Z,16.90
2023-11-17T04:59:37.790Z,6.72
2023-11-17T05:04:41.544Z,6.50
2023-11-17T05:09:44.708Z,4.85
2023-11-17T05:14:48.466Z,7.80
2023-11-17T05:19:51.439Z,7.30
2023-11-17T05:24:57.284Z,5.35
2023-11-17T05:30:00.549Z,5.68
2023-11-17T05:35:04.235Z,5.68
2023-11-17T05:40:07.485Z,7.10
2023-11-17T05:45:13.900Z,8.32
2023-11-17T05:50:17.113Z,11.68
2023-11-17T05:55:29.132Z,5.53
2023-11-17T06:00:34.464Z,13.15
2023-11-17T06:05:37.968Z,6.60
2023-11-17T06:10:41.041Z,5.85
2023-11-17T06:15:43.925Z,7.93
2023-11-17T06:20:48.580Z,7.35
2023-11-17T06:30:54.366Z,7.40
2023-11-17T06:35:57.488Z,8.98
2023-11-17T06:41:01.019Z,8.23
2023-11-17T06:46:04.217Z,11.23
2023-11-17T06:51:07.411Z,10.98
2023-11-17T06:56:11.564Z,10.07
2023-11-17T07:01:16.217Z,12.20
2023-11-17T07:06:19.441Z,9.35
2023-11-17T07:11:22.249Z,16.48
2023-11-17T07:16:35.025Z,14.95
2023-11-17T07:21:44.080Z,9.98
2023-11-17T07:26:47.709Z,15.25
2023-11-17T07:31:52.980Z,12.77
2023-11-17T07:36:56.247Z,15.43
2023-11-17T07:41:59.228Z,13.57
2023-11-17T07:47:06.247Z,14.57
2023-11-17T07:52:09.493Z,11.48
2023-11-17T07:57:12.335Z,13.10
2023-11-17T08:02:16.465Z,12.63
2023-11-17T08:07:19.392Z,13.35
2023-11-17T08:12:22.522Z,12.07
2023-11-17T08:17:25.381Z,13.05
2023-11-17T08:22:31.505Z,13.90
2023-11-17T08:27:34.404Z,11.65
2023-11-17T08:32:40.872Z,7.97
2023-11-17T08:37:43.944Z,10.07
2023-11-17T08:42:47.723Z,8.25
2023-11-17T08:47:50.649Z,8.90
2023-11-17T08:52:54.095Z,13.32
2023-11-17T08:57:57.049Z,18.17
2023-11-17T09:03:00.161Z,8.73
2023-11-17T09:08:03.253Z,15.32
2023-11-17T09:13:06.760Z,9.18
2023-11-17T09:18:09.508Z,7.95
2023-11-17T09:23:13.802Z,9.32
2023-11-17T09:28:17.717Z,10.10
2023-11-17T09:33:20.751Z,8.77
2023-11-17T09:38:27.991Z,10.50
2023-11-17T09:43:45.026Z,8.88
2023-11-17T09:48:48.400Z,8.05
2023-11-17T09:53:53.017Z,12.23
2023-11-17T09:58:56.421Z,10.60
2023-11-17T10:04:00.803Z,16.90
2023-11-17T10:09:04.474Z,16.38
2023-11-17T10:14:08.263Z,12.23
2023-11-17T10:19:15.154Z,18.02
2023-11-17T10:24:18.346Z,16.92
2023-11-17T10:29:21.544Z,14.07
2023-11-17T10:34:25.098Z,16.60
2023-11-17T10:39:27.886Z,17.05
2023-11-17T10:44:34.643Z,19.73
2023-11-17T10:49:37.506Z,15.68
2023-11-17T10:54:49.111Z,15.27
2023-11-17T10:59:58.184Z,18.25
2023-11-17T11:05:04.945Z,16.65
2023-11-17T11:10:17.091Z,21.42
2023-11-17T11:15:21.583Z,18.73
2023-11-17T11:20:25.947Z,17.80
2023-11-17T11:35:35.792Z,24.17
2023-11-17T11:40:43.158Z,24.95
2023-11-17T11:45:46.466Z,20.23
2023-11-17T11:50:59.112Z,25.15
2023-11-17T11:56:03.202Z,20.15
2023-11-17T12:01:08.569Z,16.17
2023-11-17T12:06:11.393Z,21.38
2023-11-17T12:11:14.859Z,31.33
2023-11-17T12:16:20.759Z,19.00
2023-11-17T12:21:24.582Z,28.25
2023-11-17T12:26:29.348Z,48.90
2023-11-17T12:31:32.490Z,21.80
2023-11-17T12:36:37.285Z,19.30
2023-11-17T12:41:40.209Z,22.90
2023-11-17T12:46:44.280Z,21.90
2023-11-17T12:51:48.015Z,19.60
2023-11-17T12:56:52.745Z,20.67
2023-11-17T13:01:55.624Z,18.48
2023-11-17T13:06:58.905Z,19.02
2023-11-17T13:12:01.713Z,20.35
2023-11-17T13:17:05.588Z,19.60
2023-11-17T13:22:08.734Z,22.10
2023-11-17T13:27:13.922Z,20.38
2023-11-17T13:32:20.138Z,20.00
2023-11-17T13:37:22.966Z,24.70
2023-11-17T13:42:26.529Z,22.90
2023-11-17T13:47:30.901Z,22.75
2023-11-17T13:52:34.185Z,26.58
2023-11-17T13:57:37.905Z,21.85
2023-11-17T14:02:43.297Z,20.70
2023-11-17T14:07:46.318Z,25.23
2023-11-17T14:12:51.145Z,21.63
2023-11-17T14:17:54.083Z,21.58
2023-11-17T14:22:57.020Z,24.75
2023-11-17T14:28:00.034Z,21.48
2023-11-17T14:33:04.671Z,19.42
2023-11-17T14:38:09.428Z,16.98
2023-11-17T14:43:12.797Z,16.45
2023-11-17T14:48:17.881Z,17.90
2023-11-17T14:53:21.018Z,21.48
2023-11-17T14:58:24.207Z,18.23
2023-11-17T15:03:29.157Z,20.60
2023-11-17T15:08:32.502Z,10.23
2023-11-17T15:13:35.521Z,10.23
2023-11-17T15:18:40.015Z,7.40
2023-11-17T15:28:46.700Z,7.18
2023-11-17T15:33:49.734Z,6.72
2023-11-17T15:38:59.641Z,6.68
2023-11-17T15:44:06.426Z,8.60
2023-11-17T15:49:12.906Z,7.70
2023-11-17T15:54:18.317Z,9.18
2023-11-17T15:59:22.741Z,7.35
2023-11-17T16:04:25.882Z,7.22
2023-11-17T16:09:30.224Z,7.28
2023-11-17T16:19:35.850Z,5.50
2023-11-17T16:24:40.755Z,6.18
2023-11-17T16:29:43.925Z,7.85
2023-11-17T16:34:49.504Z,9.07
2023-11-17T16:39:52.753Z,7.60
2023-11-17T16:44:55.586Z,7.35
2023-11-17T16:49:58.680Z,7.65
2023-11-17T16:55:01.653Z,9.07
2023-11-17T17:05:17.526Z,8.18
2023-11-17T17:10:23.526Z,12.02
2023-11-17T17:15:28.508Z,6.97
2023-11-17T17:20:31.595Z,8.18
2023-11-17T17:25:38.557Z,8.90
2023-11-17T17:30:44.933Z,10.43
2023-11-17T17:35:48.284Z,7.97
2023-11-17T17:40:51.613Z,7.55
2023-11-17T17:45:55.482Z,9.55
2023-11-17T17:51:02.093Z,7.55
2023-11-17T17:56:05.329Z,6.82
2023-11-17T18:01:09.086Z,8.35
2023-11-17T18:06:15.894Z,7.50
2023-11-17T18:11:30.637Z,8.00
2023-11-17T18:16:34.086Z,8.52
2023-11-17T18:21:37.210Z,7.15
2023-11-17T18:26:59.174Z,7.28
2023-11-17T18:32:04.393Z,9.13
2023-11-17T18:37:07.707Z,7.32
2023-11-17T18:42:11.735Z,8.13
2023-11-17T18:47:15.413Z,8.05
2023-11-17T18:52:20.770Z,8.30
2023-11-17T18:57:23.604Z,7.95
2023-11-17T19:02:28.434Z,9.50
2023-11-17T19:07:32.107Z,10.20
2023-11-17T19:12:41.225Z,8.63
2023-11-17T19:17:46.050Z,7.28
2023-11-17T19:22:49.730Z,8.70
2023-11-17T19:27:52.555Z,8.93
2023-11-17T19:32:57.594Z,7.93
2023-11-17T19:38:00.592Z,7.80
2023-11-17T19:43:05.773Z,8.20
2023-11-17T19:48:11.579Z,8.45
2023-11-17T19:53:16.706Z,10.60
2023-11-17T19:58:20.498Z,8.80
2023-11-17T20:03:23.598Z,9.13
2023-11-17T20:08:26.425Z,10.27
2023-11-17T20:13:29.189Z,9.43
2023-11-17T20:18:33.595Z,8.90
2023-11-17T20:23:38.118Z,9.95
2023-11-17T20:28:41.379Z,13.40
2023-11-17T20:33:44.736Z,10.27
2023-11-17T20:38:47.865Z,10.48
2023-11-17T20:43:51.202Z,9.82
2023-11-17T20:48:54.870Z,10.60
2023-11-17T20:53:59.192Z,14.63
2023-11-17T20:59:02.713Z,10.75
2023-11-17T21:04:11.010Z,12.50
2023-11-17T21:09:17.385Z,10.18
2023-11-17T21:14:20.757Z,9.80
2023-11-17T21:19:23.764Z,11.35
2023-11-17T21:24:28.217Z,13.02
2023-11-17T21:34:36.814Z,12.63
2023-11-17T21:39:40.153Z,11.13
2023-11-17T21:44:43.281Z,10.70
2023-11-17T21:49:46.382Z,8.73
2023-11-17T21:54:49.756Z,13.23
2023-11-17T21:59:52.648Z,11.65
2023-11-17T22:04:55.556Z,12.23
2023-11-17T22:10:02.448Z,12.68
2023-11-17T22:15:10.611Z,11.85
2023-11-17T22:20:19.394Z,10.35
2023-11-17T22:25:23.726Z,12.43
2023-11-17T22:30:27.529Z,12.02
2023-11-17T22:35:30.788Z,11.68
2023-11-17T22:40:33.974Z,12.38
2023-11-17T22:45:37.569Z,13.50
2023-11-17T22:50:40.356Z,12.05
2023-11-17T22:55:43.046Z,10.80
2023-11-17T23:00:49.483Z,10.40
2023-11-17T23:05:53.568Z,10.02
2023-11-17T23:10:56.957Z,10.40
2023-11-17T23:15:59.934Z,12.35
2023-11-17T23:21:04.444Z,10.80
2023-11-17T23:26:10.472Z,9.45
2023-11-17T23:31:16.171Z,10.85
2023-11-17T23:36:20.878Z,9.13
2023-11-17T23:41:23.922Z,10.45
2023-11-17T23:46:28.036Z,11.80
2023-11-17T23:51:30.972Z,10.73
2023-11-17T23:56:33.949Z,10.52
